Mountainair, New Mexico
Current Conditions -  °F | °C
As of 8:35 PM on Sunday 23 Nov 2014 (Local Time) from K0E0 Reporting Station
Clear Clear  
Wind Chill: 21°   Ceiling: Unl
Heat Index: 33°   Visibility: 10mi
Dew Point: 10°   Wind: 23mph
Humidity: 39%   Direction: 300°WNW
Pressure: 29.99"   Gusts: 30mph
Location:  34.52°N, 106.24°W
Report Text: K0E0 240335Z AUTO 30020G26KT 10SM CLR 01/M12 A2999 RMK AO2 T00061120
Loading
Personal Weather Stations






























Interactive Weather Map New forecast layout! Learn more

10-Day Weather Forecast

Advertisements
Track Severe Weather on mobile